Terminal Aerodrome Forecast
Issued by NWS Quad Cities IA IL

Home | Current Version | Previous Version | Text Only | Print | Product List | Glossary On
Versions: 1 2 3 4 5 6 7 8 9 10 11 12 13 14 15 16 17 18 19 20 21 22 23 24 25
000
FTUS43 KDVN 050520
TAFMLI
TAF
KMLI 050520Z 0506/0606 07007KT 4SM -RA BR BKN035 OVC070
      TEMPO 0506/0510 1SM +TSRA BR BKN008CB OVC020
     FM051100 10010KT 5SM BR VCSH OVC015
     FM051800 12012KT P6SM VCTS SCT040CB BKN100
     FM052100 18007KT P6SM SCT250=

USA.gov is the U.S. government's official web portal to all federal, state and local government web resources and services.